createdAt,value
2023-04-23T00:02:13.520Z,100242.56
2023-04-23T00:04:40.299Z,100239.03
2023-04-23T00:07:06.925Z,100241.09
2023-04-23T00:09:33.355Z,100237.47
2023-04-23T00:11:59.885Z,100232.47
2023-04-23T00:14:26.346Z,100231.72
2023-04-23T00:16:52.765Z,100222.34
2023-04-23T00:19:19.386Z,100225.22
2023-04-23T00:21:45.951Z,100223.06
2023-04-23T00:24:12.297Z,100212.31
2023-04-23T00:26:38.651Z,100213.75
2023-04-23T00:29:05.000Z,100210.94
2023-04-23T00:31:31.385Z,100212.41
2023-04-23T00:33:57.745Z,100200.09
2023-04-23T00:36:24.239Z,100208.00
2023-04-23T00:38:50.911Z,100208.00
2023-04-23T00:41:17.350Z,100203.66
2023-04-23T00:43:43.788Z,100208.00
2023-04-23T00:46:10.180Z,100211.53
2023-04-23T00:48:36.527Z,100210.81
2023-04-23T00:51:06.062Z,100209.34
2023-04-23T00:53:32.856Z,100209.34
2023-04-23T00:55:59.846Z,100208.59
2023-04-23T00:58:26.225Z,100207.88
2023-04-23T01:00:52.713Z,100207.88
2023-04-23T01:03:21.778Z,100202.09
2023-04-23T01:05:48.306Z,100200.66
2023-04-23T01:08:15.126Z,100202.09
2023-04-23T01:10:42.527Z,100202.09
2023-04-23T01:13:09.008Z,100202.09
2023-04-23T01:15:35.580Z,100202.09
2023-04-23T01:18:04.443Z,100196.34
2023-04-23T01:20:32.123Z,100202.09
2023-04-23T01:22:58.641Z,100207.88
2023-04-23T01:25:25.005Z,100203.53
2023-04-23T01:27:51.586Z,100202.09
2023-04-23T01:30:17.934Z,100200.66
2023-04-23T01:32:44.311Z,100195.63
2023-04-23T01:35:10.668Z,100202.81
2023-04-23T01:37:37.048Z,100200.66
2023-04-23T01:40:03.447Z,100196.28
2023-04-23T01:42:29.789Z,100200.66
2023-04-23T01:44:56.113Z,100196.34
2023-04-23T01:47:22.658Z,100188.41
2023-04-23T01:49:49.074Z,100187.63
2023-04-23T01:52:15.463Z,100184.75
2023-04-23T01:54:42.208Z,100200.66
2023-04-23T01:57:09.616Z,100193.41
2023-04-23T01:59:36.454Z,100196.28
2023-04-23T02:02:02.835Z,100194.81
2023-04-23T02:04:29.345Z,100194.81
2023-04-23T02:06:55.839Z,100197.69
2023-04-23T02:09:22.384Z,100194.81
2023-04-23T02:11:48.802Z,100196.22
2023-04-23T02:14:15.675Z,100196.22
2023-04-23T02:16:42.005Z,100189.72
2023-04-23T02:19:08.444Z,100189.00
2023-04-23T02:21:34.814Z,100188.25
2023-04-23T02:24:01.199Z,100186.13
2023-04-23T02:26:28.997Z,100182.50
2023-04-23T02:28:55.375Z,100189.00
2023-04-23T02:31:21.780Z,100187.53
2023-04-23T02:33:48.149Z,100181.03
2023-04-23T02:36:14.537Z,100189.00
2023-04-23T02:38:42.441Z,100186.84
2023-04-23T02:41:08.897Z,100190.44
2023-04-23T02:43:35.274Z,100182.50
2023-04-23T02:46:07.942Z,100182.50
2023-04-23T02:48:37.697Z,100182.50
2023-04-23T02:51:04.211Z,100182.50
2023-04-23T02:53:30.569Z,100182.50
2023-04-23T02:55:56.984Z,100181.78
2023-04-23T02:58:23.351Z,100181.03
2023-04-23T03:00:51.546Z,100175.25
2023-04-23T03:03:18.143Z,100174.53
2023-04-23T03:05:44.697Z,100181.03
2023-04-23T03:08:11.076Z,100177.41
2023-04-23T03:10:37.663Z,100176.69
2023-04-23T03:13:04.525Z,100170.91
2023-04-23T03:15:31.051Z,100167.28
2023-04-23T03:17:57.885Z,100162.91
2023-04-23T03:20:24.430Z,100162.28
2023-04-23T03:22:50.808Z,100162.91
2023-04-23T03:25:17.176Z,100165.06
2023-04-23T03:27:44.544Z,100165.78
2023-04-23T03:30:11.271Z,100159.31
2023-04-23T03:32:38.170Z,100159.31
2023-04-23T03:35:04.810Z,100153.53
2023-04-23T03:37:32.045Z,100161.44
2023-04-23T03:39:58.571Z,100163.00
2023-04-23T03:42:24.909Z,100155.75
2023-04-23T03:44:53.333Z,100158.72
2023-04-23T03:47:20.338Z,100164.50
2023-04-23T03:49:46.810Z,100164.50
2023-04-23T03:52:13.382Z,100157.38
2023-04-23T03:54:40.052Z,100160.25
2023-04-23T03:57:14.057Z,100175.31
2023-04-23T03:59:54.919Z,100170.28
2023-04-23T04:02:21.552Z,100161.66
2023-04-23T04:04:51.832Z,100160.19
2023-04-23T04:07:18.383Z,100157.38
2023-04-23T04:09:44.950Z,100156.66
2023-04-23T04:12:12.172Z,100155.88
2023-04-23T04:14:38.539Z,100161.66
2023-04-23T04:17:04.889Z,100164.53
2023-04-23T04:19:31.209Z,100165.94
2023-04-23T04:21:57.531Z,100171.78
2023-04-23T04:24:38.340Z,100161.66
2023-04-23T04:27:05.899Z,100160.19
2023-04-23T04:29:32.250Z,100168.84
2023-04-23T04:31:58.576Z,100164.53
2023-04-23T04:34:24.919Z,100170.25
2023-04-23T04:36:54.755Z,100171.72
2023-04-23T04:39:21.102Z,100170.97
2023-04-23T04:41:47.909Z,100183.22
2023-04-23T04:44:14.428Z,100178.91
2023-04-23T04:46:42.744Z,100170.25
2023-04-23T04:49:09.456Z,100175.25
2023-04-23T04:51:38.678Z,100165.88
2023-04-23T04:54:05.030Z,100168.75
2023-04-23T04:56:31.377Z,100169.50
2023-04-23T04:58:57.724Z,100170.25
2023-04-23T05:01:25.358Z,100161.53
2023-04-23T05:03:52.003Z,100160.13
2023-04-23T05:06:18.514Z,100154.28
2023-04-23T05:08:48.087Z,100157.16
2023-04-23T05:11:15.137Z,100169.41
2023-04-23T05:13:41.471Z,100179.47
2023-04-23T05:16:08.235Z,100183.06
2023-04-23T05:18:34.588Z,100181.63
2023-04-23T05:21:01.024Z,100182.28
2023-04-23T05:23:27.485Z,100178.66
2023-04-23T05:25:56.953Z,100180.13
2023-04-23T05:28:23.289Z,100183.72
2023-04-23T05:30:49.856Z,100167.88
2023-04-23T05:33:16.302Z,100185.88
2023-04-23T05:35:42.645Z,100178.66
2023-04-23T05:38:09.040Z,100180.13
2023-04-23T05:40:35.379Z,100178.66
2023-04-23T05:43:01.833Z,100189.31
2023-04-23T05:45:28.234Z,100187.91
2023-04-23T05:47:54.663Z,100190.13
2023-04-23T05:50:21.278Z,100196.59
2023-04-23T05:52:47.630Z,100192.28
2023-04-23T05:55:15.886Z,100193.00
2023-04-23T05:57:42.211Z,100191.50
2023-04-23T06:00:11.811Z,100198.75
2023-04-23T06:02:41.759Z,100198.75
2023-04-23T06:05:08.602Z,100199.41
2023-04-23T06:07:35.965Z,100197.28
2023-04-23T06:10:03.137Z,100201.56
2023-04-23T06:12:29.474Z,100195.06
2023-04-23T06:14:55.801Z,100195.06
2023-04-23T06:17:22.136Z,100198.69
2023-04-23T06:19:48.479Z,100195.81
2023-04-23T06:22:14.834Z,100198.91
2023-04-23T06:24:41.480Z,100200.44
2023-04-23T06:27:08.055Z,100205.47
2023-04-23T06:29:37.851Z,100208.91
2023-04-23T06:32:05.810Z,100207.47
2023-04-23T06:34:32.171Z,100209.53
2023-04-23T06:36:58.542Z,100214.53
2023-04-23T06:39:24.894Z,100207.34
2023-04-23T06:41:51.260Z,100210.22
2023-04-23T06:44:34.606Z,100219.56
2023-04-23T06:47:02.436Z,100220.28
2023-04-23T06:49:28.807Z,100211.63
2023-04-23T06:51:57.482Z,100212.34
2023-04-23T06:54:24.157Z,100209.47
2023-04-23T06:56:51.028Z,100215.97
2023-04-23T06:59:17.417Z,100216.63
2023-04-23T07:01:47.162Z,100210.88
2023-04-23T07:04:13.575Z,100210.22
2023-04-23T07:06:39.956Z,100211.63
2023-04-23T07:09:06.321Z,100217.38
2023-04-23T07:11:34.783Z,100214.50
2023-04-23T07:14:01.217Z,100210.88
2023-04-23T07:16:29.583Z,100213.03
2023-04-23T07:18:55.970Z,100210.13
2023-04-23T07:21:22.309Z,100215.91
2023-04-23T07:23:48.653Z,100215.91
2023-04-23T07:26:16.165Z,100210.13
2023-04-23T07:28:42.504Z,100215.16
2023-04-23T07:31:09.103Z,100215.91
2023-04-23T07:33:35.584Z,100220.94
2023-04-23T07:36:02.124Z,100222.31
2023-04-23T07:38:28.454Z,100222.31
2023-04-23T07:40:54.790Z,100225.19
2023-04-23T07:43:21.352Z,100224.47
2023-04-23T07:45:47.737Z,100225.19
2023-04-23T07:48:14.171Z,100223.00
2023-04-23T07:50:40.546Z,100228.03
2023-04-23T07:53:06.959Z,100236.00
2023-04-23T07:55:33.338Z,100228.63
2023-04-23T07:57:59.697Z,100231.72
2023-04-23T08:00:26.151Z,100230.22
2023-04-23T08:02:53.374Z,100224.75
2023-04-23T08:05:19.868Z,100224.75
2023-04-23T08:07:46.223Z,100224.75
2023-04-23T08:10:12.570Z,100229.00
2023-04-23T08:12:38.899Z,100229.72
2023-04-23T08:15:05.400Z,100233.31
2023-04-23T08:17:38.126Z,100229.09
2023-04-23T08:20:06.751Z,100236.41
2023-04-23T08:22:33.215Z,100227.69
2023-04-23T08:24:59.569Z,100231.97
2023-04-23T08:27:25.921Z,100236.13
2023-04-23T08:29:52.287Z,100239.16
2023-04-23T08:32:18.707Z,100246.44
2023-04-23T08:34:45.164Z,100237.88
2023-04-23T08:37:19.626Z,100239.38
2023-04-23T08:39:49.779Z,100239.41
2023-04-23T08:42:22.594Z,100247.31
2023-04-23T08:44:48.951Z,100245.94
2023-04-23T08:47:15.994Z,100245.94
2023-04-23T08:49:43.313Z,100253.81
2023-04-23T08:52:17.434Z,100258.13
2023-04-23T08:54:45.865Z,100266.81
2023-04-23T08:57:12.212Z,100261.06
2023-04-23T08:59:38.663Z,100263.28
2023-04-23T09:02:09.796Z,100266.81
2023-04-23T09:04:36.480Z,100266.81
2023-04-23T09:07:03.740Z,100266.81
2023-04-23T09:09:30.340Z,100266.09
2023-04-23T09:11:56.914Z,100272.59
2023-04-23T09:14:26.398Z,100276.59
2023-04-23T09:16:52.827Z,100281.31
2023-04-23T09:19:19.226Z,100281.44
2023-04-23T09:21:46.090Z,100287.19
2023-04-23T09:24:12.478Z,100285.91
2023-04-23T09:26:45.757Z,100285.22
2023-04-23T09:29:17.507Z,100294.69
2023-04-23T09:31:44.622Z,100295.50
2023-04-23T09:34:11.350Z,100296.16
2023-04-23T09:36:37.718Z,100303.38
2023-04-23T09:39:04.060Z,100309.09
2023-04-23T09:41:31.178Z,100311.97
2023-04-23T09:43:57.522Z,100316.97
2023-04-23T09:46:39.605Z,100310.56
2023-04-23T09:49:07.847Z,100299.84
2023-04-23T09:51:40.640Z,100308.22
2023-04-23T09:54:21.605Z,100316.25
2023-04-23T09:56:51.449Z,100310.56
2023-04-23T09:59:23.016Z,100323.63
2023-04-23T10:01:55.692Z,100323.63
2023-04-23T10:04:23.132Z,100325.84
2023-04-23T10:07:17.165Z,100317.84
2023-04-23T10:09:44.418Z,100320.56
2023-04-23T10:12:27.798Z,100319.28
2023-04-23T10:14:59.542Z,100326.44
2023-04-23T10:17:26.051Z,100322.16
2023-04-23T10:19:52.388Z,100319.19
2023-04-23T10:22:19.956Z,100323.75
2023-04-23T10:24:49.198Z,100316.53
2023-04-23T10:27:28.523Z,100319.28
2023-04-23T10:29:59.523Z,100310.69
2023-04-23T10:32:25.965Z,100306.22
2023-04-23T10:34:52.328Z,100311.38
2023-04-23T10:37:21.661Z,100305.13
2023-04-23T10:39:50.221Z,100315.75
2023-04-23T10:42:16.697Z,100317.28
2023-04-23T10:47:12.946Z,100316.19
2023-04-23T10:49:39.495Z,100319.66
2023-04-23T10:52:19.712Z,100327.63
2023-04-23T10:54:56.342Z,100325.16
2023-04-23T10:57:22.666Z,100331.19
2023-04-23T10:59:52.560Z,100328.25
2023-04-23T11:02:18.991Z,100331.31
2023-04-23T11:04:46.046Z,100324.09
2023-04-23T11:07:12.707Z,100329.88
2023-04-23T11:09:39.139Z,100328.97
2023-04-23T11:12:06.233Z,100328.31
2023-04-23T11:14:52.820Z,100333.41
2023-04-23T11:17:21.767Z,100324.78
2023-04-23T11:20:16.324Z,100324.91
2023-04-23T11:22:43.021Z,100326.28
2023-04-23T11:25:10.086Z,100320.38
2023-04-23T11:27:38.039Z,100323.09
2023-04-23T11:30:05.290Z,100317.09
2023-04-23T11:32:32.289Z,100317.31
2023-04-23T11:34:58.692Z,100315.38
2023-04-23T11:37:25.611Z,100313.16
2023-04-23T11:39:52.002Z,100316.59
2023-04-23T11:42:20.184Z,100307.59
2023-04-23T11:44:47.644Z,100303.59
2023-04-23T11:47:14.448Z,100312.66
2023-04-23T11:49:42.672Z,100303.56
2023-04-23T11:52:09.537Z,100305.56
2023-04-23T11:54:35.911Z,100314.16
2023-04-23T11:57:03.001Z,100313.44
2023-04-23T11:59:29.359Z,100309.56
2023-04-23T12:01:58.795Z,100306.88
2023-04-23T12:04:25.894Z,100309.94
2023-04-23T12:06:52.826Z,100307.09
2023-04-23T12:09:19.664Z,100318.63
2023-04-23T12:11:46.076Z,100317.25
2023-04-23T12:14:12.716Z,100323.06
2023-04-23T12:16:45.770Z,100330.31
2023-04-23T12:19:16.012Z,100330.31
2023-04-23T12:21:54.652Z,100328.88
2023-04-23T12:24:24.379Z,100313.75
2023-04-23T12:26:54.345Z,100325.28
2023-04-23T12:29:21.848Z,100329.63
2023-04-23T12:31:48.281Z,100326.75
2023-04-23T12:34:16.713Z,100321.72
2023-04-23T12:36:46.990Z,100319.56
2023-04-23T12:39:19.304Z,100318.09
2023-04-23T12:41:45.666Z,100313.81
2023-04-23T12:44:12.012Z,100310.19
2023-04-23T12:46:38.385Z,100305.88
2023-04-23T12:49:05.067Z,100311.66
2023-04-23T12:51:31.417Z,100304.44
2023-04-23T12:53:57.763Z,100308.03
2023-04-23T12:56:24.344Z,100313.13
2023-04-23T12:58:50.685Z,100305.88
2023-04-23T13:01:17.136Z,100300.19
2023-04-23T13:03:43.591Z,100300.13
2023-04-23T13:06:09.982Z,100295.84
2023-04-23T13:08:36.331Z,100302.34
2023-04-23T13:11:02.693Z,100305.16
2023-04-23T13:13:29.181Z,100303.81
2023-04-23T13:15:55.588Z,100297.31
2023-04-23T13:18:22.688Z,100291.53
2023-04-23T13:20:49.028Z,100298.78
2023-04-23T13:23:15.375Z,100294.41
2023-04-23T13:25:41.722Z,100288.66
2023-04-23T13:28:08.090Z,100285.78
2023-04-23T13:30:34.436Z,100287.25
2023-04-23T13:33:00.804Z,100281.50
2023-04-23T13:35:27.383Z,100278.66
2023-04-23T13:37:53.743Z,100280.06
2023-04-23T13:40:20.094Z,100288.00
2023-04-23T13:42:47.992Z,100277.19
2023-04-23T13:45:14.913Z,100269.97
2023-04-23T13:47:41.342Z,100267.19
2023-04-23T13:50:07.942Z,100260.69
2023-04-23T13:52:34.786Z,100265.66
2023-04-23T13:55:03.544Z,100267.00
2023-04-23T13:57:29.891Z,100258.44
2023-04-23T13:59:56.323Z,100258.44
2023-04-23T14:02:23.864Z,100259.91
2023-04-23T14:04:50.503Z,100251.31
2023-04-23T14:07:16.926Z,100255.56
2023-04-23T14:09:43.776Z,100247.00
2023-04-23T14:12:10.552Z,100239.78
2023-04-23T14:14:36.887Z,100238.28
2023-04-23T14:17:03.284Z,100235.47
2023-04-23T14:19:30.472Z,100237.69
2023-04-23T14:21:56.799Z,100231.97
2023-04-23T14:24:24.407Z,100232.72
2023-04-23T14:26:50.739Z,100235.84
2023-04-23T14:29:23.002Z,100223.09
2023-04-23T14:31:49.387Z,100231.53
2023-04-23T14:34:16.284Z,100225.03
2023-04-23T14:36:42.618Z,100223.50
2023-04-23T14:39:08.949Z,100218.53
2023-04-23T14:41:35.900Z,100222.88
2023-04-23T14:44:02.251Z,100218.66
2023-04-23T14:46:28.714Z,100216.75
2023-04-23T14:48:55.270Z,100208.59
2023-04-23T14:51:21.698Z,100207.34
2023-04-23T14:53:48.029Z,100211.72
2023-04-23T14:56:14.355Z,100201.75
2023-04-23T14:58:41.886Z,100205.97
2023-04-23T15:01:08.609Z,100197.06
2023-04-23T15:03:35.459Z,100190.44
2023-04-23T15:06:02.114Z,100187.16
2023-04-23T15:08:28.460Z,100191.94
2023-04-23T15:10:54.808Z,100190.41
2023-04-23T15:13:21.062Z,100180.94
2023-04-23T15:15:50.631Z,100179.56
2023-04-23T15:18:17.031Z,100183.78
2023-04-23T15:20:43.432Z,100177.22
2023-04-23T15:23:10.021Z,100181.66
2023-04-23T15:25:36.903Z,100181.66
2023-04-23T15:28:03.413Z,100175.88
2023-04-23T15:30:30.060Z,100173.00
2023-04-23T15:32:56.425Z,100174.44
2023-04-23T15:35:23.196Z,100175.88
2023-04-23T15:37:49.699Z,100176.66
2023-04-23T15:40:16.300Z,100162.91
2023-04-23T15:42:44.253Z,100168.69
2023-04-23T15:45:11.657Z,100168.56
2023-04-23T15:47:38.657Z,100171.47
2023-04-23T15:50:05.398Z,100171.41
2023-04-23T15:52:31.771Z,100165.59
2023-04-23T15:54:58.127Z,100167.72
2023-04-23T15:57:24.456Z,100156.88
2023-04-23T15:59:51.006Z,100169.22
2023-04-23T16:02:17.986Z,100156.94
2023-04-23T16:04:44.569Z,100154.00
2023-04-23T16:07:11.024Z,100156.81
2023-04-23T16:09:37.388Z,100152.47
2023-04-23T16:12:03.721Z,100145.28
2023-04-23T16:14:30.230Z,100151.00
2023-04-23T16:16:56.625Z,100143.06
2023-04-23T16:19:23.001Z,100143.75
2023-04-23T16:21:49.460Z,100145.16
2023-04-23T16:24:17.217Z,100139.38
2023-04-23T16:26:43.612Z,100142.19
2023-04-23T16:29:21.535Z,100136.38
2023-04-23T16:31:49.433Z,100128.47
2023-04-23T16:34:15.779Z,100130.66
2023-04-23T16:36:42.246Z,100124.72
2023-04-23T16:39:08.655Z,100123.44
2023-04-23T16:41:35.029Z,100121.97
2023-04-23T16:44:01.403Z,100124.97
2023-04-23T16:46:30.749Z,100121.28
2023-04-23T16:48:57.742Z,100119.13
2023-04-23T16:51:24.246Z,100114.84
2023-04-23T16:53:50.613Z,100107.59
2023-04-23T16:56:16.937Z,100108.22
2023-04-23T16:58:43.409Z,100105.38
2023-04-23T17:01:09.801Z,100106.16
2023-04-23T17:03:37.097Z,100108.97
2023-04-23T17:06:10.341Z,100103.94
2023-04-23T17:08:37.234Z,100102.41
2023-04-23T17:11:04.286Z,100097.44
2023-04-23T17:13:30.623Z,100108.97
2023-04-23T17:15:57.010Z,100098.84
2023-04-23T17:18:23.347Z,100099.56
2023-04-23T17:20:49.685Z,100094.50
2023-04-23T17:23:16.035Z,100092.34
2023-04-23T17:25:42.360Z,100094.31
2023-04-23T17:28:08.703Z,100094.38
2023-04-23T17:30:35.031Z,100088.63
2023-04-23T17:33:01.390Z,100085.56
2023-04-23T17:35:27.725Z,100082.09
2023-04-23T17:37:54.789Z,100080.34
2023-04-23T17:40:21.510Z,100076.41
2023-04-23T17:42:48.086Z,100082.84
2023-04-23T17:45:14.438Z,100074.06
2023-04-23T17:47:40.969Z,100069.59
2023-04-23T17:50:09.385Z,100072.56
2023-04-23T17:52:36.048Z,100069.97
2023-04-23T17:55:02.755Z,100071.78
2023-04-23T17:57:29.110Z,100073.47
2023-04-23T17:59:56.418Z,100076.59
2023-04-23T18:02:22.805Z,100069.47
2023-04-23T18:04:49.190Z,100073.81
2023-04-23T18:07:15.514Z,100083.88
2023-04-23T18:09:41.870Z,100075.28
2023-04-23T18:12:08.247Z,100075.28
2023-04-23T18:14:34.588Z,100082.53
2023-04-23T18:17:00.966Z,100083.19
2023-04-23T18:19:27.329Z,100088.97
2023-04-23T18:21:54.847Z,100083.75
2023-04-23T18:24:21.236Z,100082.09
2023-04-23T18:26:51.864Z,100085.22
2023-04-23T18:29:18.206Z,100082.41
2023-04-23T18:31:44.578Z,100091.13
2023-04-23T18:34:10.967Z,100085.34
2023-04-23T18:36:37.456Z,100091.84
2023-04-23T18:39:04.032Z,100094.00
2023-04-23T18:41:30.891Z,100088.19
2023-04-23T18:43:59.324Z,100086.09
2023-04-23T18:46:26.140Z,100082.41
2023-04-23T18:48:53.543Z,100089.41
2023-04-23T18:51:26.519Z,100085.22
2023-04-23T18:53:52.882Z,100085.22
2023-04-23T18:56:19.214Z,100092.50
2023-04-23T18:58:45.577Z,100094.66
2023-04-23T19:01:11.912Z,100097.59
2023-04-23T19:03:38.382Z,100089.63
2023-04-23T19:06:07.392Z,100095.41
2023-04-23T19:08:36.771Z,100100.25
2023-04-23T19:11:03.163Z,100098.84
2023-04-23T19:13:29.503Z,100093.94
2023-04-23T19:15:56.122Z,100099.72
2023-04-23T19:18:22.473Z,100092.44
2023-04-23T19:20:48.793Z,100095.34
2023-04-23T19:23:15.118Z,100091.00
2023-04-23T19:25:41.434Z,100091.00
2023-04-23T19:28:07.822Z,100085.22
2023-04-23T19:30:34.369Z,100075.84
2023-04-23T19:33:00.833Z,100075.13
2023-04-23T19:35:27.227Z,100078.00
2023-04-23T19:37:53.681Z,100073.66
2023-04-23T19:40:20.101Z,100070.75
2023-04-23T19:42:46.464Z,100063.53
2023-04-23T19:45:15.389Z,100066.44
2023-04-23T19:47:41.840Z,100056.34
2023-04-23T19:50:09.641Z,100054.13
2023-04-23T19:52:36.212Z,100055.63
2023-04-23T19:55:02.613Z,100062.06
2023-04-23T19:57:29.268Z,100059.19
2023-04-23T19:59:55.608Z,100053.41
2023-04-23T20:02:22.032Z,100056.94
2023-04-23T20:04:48.561Z,100050.41
2023-04-23T20:07:14.950Z,100051.84
2023-04-23T20:09:44.410Z,100056.94
2023-04-23T20:12:10.921Z,100049.69
2023-04-23T20:14:37.270Z,100048.97
2023-04-23T20:17:03.850Z,100041.78
2023-04-23T20:19:30.760Z,100048.97
2023-04-23T20:21:57.138Z,100048.22
2023-04-23T20:24:23.492Z,100041.75
2023-04-23T20:26:49.874Z,100047.50
2023-04-23T20:29:16.209Z,100044.63
2023-04-23T20:31:42.720Z,100038.84
2023-04-23T20:34:09.195Z,100035.22
2023-04-23T20:36:38.602Z,100033.75
2023-04-23T20:39:05.199Z,100033.03
2023-04-23T20:41:32.028Z,100021.50
2023-04-23T20:43:58.402Z,100021.50
2023-04-23T20:46:25.033Z,100014.25
2023-04-23T20:48:52.927Z,100018.56
2023-04-23T20:51:22.584Z,100008.50
2023-04-23T20:53:49.119Z,100002.69
2023-04-23T20:56:15.619Z,100006.28
2023-04-23T20:58:41.993Z,99995.50
2023-04-23T21:01:11.165Z,99991.16
2023-04-23T21:03:38.159Z,99989.69
2023-04-23T21:06:04.975Z,99981.06
2023-04-23T21:08:31.295Z,99979.56
2023-04-23T21:10:57.781Z,99981.00
2023-04-23T21:13:24.101Z,99978.84
2023-04-23T21:15:50.620Z,99974.56
2023-04-23T21:18:17.540Z,99963.72
2023-04-23T21:20:43.893Z,99960.81
2023-04-23T21:23:11.199Z,99963.03
2023-04-23T21:25:37.762Z,99957.28
2023-04-23T21:28:04.189Z,99955.06
2023-04-23T21:30:49.023Z,99953.56
2023-04-23T21:33:15.580Z,99947.81
2023-04-23T21:35:42.221Z,99957.88
2023-04-23T21:38:08.593Z,99939.16
2023-04-23T21:40:35.008Z,99929.00
2023-04-23T21:43:01.417Z,99930.50
2023-04-23T21:45:27.754Z,99939.09
2023-04-23T21:47:56.725Z,99936.22
2023-04-23T21:50:23.996Z,99936.22
2023-04-23T21:52:53.171Z,99934.00
2023-04-23T21:55:20.381Z,99925.34
2023-04-23T21:57:47.048Z,99923.19
2023-04-23T22:00:14.085Z,99927.50
2023-04-23T22:02:42.008Z,99944.78
2023-04-23T22:05:08.826Z,99940.44
2023-04-23T22:07:41.239Z,99937.53
2023-04-23T22:10:10.278Z,99943.31
2023-04-23T22:12:37.526Z,99954.84
2023-04-23T22:15:05.123Z,99950.50
2023-04-23T22:17:31.581Z,99943.31
2023-04-23T22:19:58.078Z,99951.16
2023-04-23T22:22:24.406Z,99946.13
2023-04-23T22:24:50.740Z,99947.56
2023-04-23T22:27:17.073Z,99933.88
2023-04-23T22:29:43.741Z,99941.13
2023-04-23T22:32:10.816Z,99938.91
2023-04-23T22:34:37.280Z,99944.69
2023-04-23T22:37:04.022Z,99937.47
2023-04-23T22:39:30.436Z,99943.94
2023-04-23T22:41:56.861Z,99933.16
2023-04-23T22:44:23.248Z,99924.47
2023-04-23T22:46:49.672Z,99924.47
2023-04-23T22:49:18.235Z,99917.97
2023-04-23T22:51:44.579Z,99919.41
2023-04-23T22:54:10.916Z,99912.22
2023-04-23T22:56:37.652Z,99902.84
2023-04-23T22:59:04.861Z,99905.72
2023-04-23T23:01:31.664Z,99902.84
2023-04-23T23:03:58.238Z,99888.38
2023-04-23T23:06:24.596Z,99882.69
2023-04-23T23:08:50.996Z,99881.19
2023-04-23T23:11:17.333Z,99867.50
2023-04-23T23:13:45.291Z,99878.31
2023-04-23T23:16:11.670Z,99879.75
2023-04-23T23:18:38.087Z,99874.69
2023-04-23T23:21:04.449Z,99868.22
2023-04-23T23:23:30.842Z,99872.50
2023-04-23T23:25:58.837Z,99863.84
2023-04-23T23:28:26.711Z,99858.09
2023-04-23T23:30:53.685Z,99855.22
2023-04-23T23:33:20.051Z,99853.75
2023-04-23T23:35:46.379Z,99849.44
2023-04-23T23:38:12.798Z,99841.50
2023-04-23T23:40:39.139Z,99839.34
2023-04-23T23:43:05.800Z,99837.16
2023-04-23T23:45:32.271Z,99829.22
2023-04-23T23:47:59.324Z,99823.47
2023-04-23T23:50:26.123Z,99821.28
2023-04-23T23:52:52.849Z,99822.03
2023-04-23T23:55:19.189Z,99822.03
2023-04-23T23:57:46.093Z,99821.28
